createdAt,value
2022-10-11T00:00:42.197Z,3.50
2022-10-11T00:03:08.684Z,2.87
2022-10-11T00:05:35.324Z,3.43
2022-10-11T00:08:02.050Z,3.73
2022-10-11T00:10:28.569Z,3.70
2022-10-11T00:12:55.012Z,3.47
2022-10-11T00:15:22.528Z,3.20
2022-10-11T00:17:49.028Z,2.87
2022-10-11T00:20:15.638Z,3.17
2022-10-11T00:22:42.708Z,2.93
2022-10-11T00:25:11.567Z,2.63
2022-10-11T00:27:38.383Z,3.73
2022-10-11T00:30:06.420Z,3.07
2022-10-11T00:32:34.248Z,3.17
2022-10-11T00:35:04.812Z,3.30
2022-10-11T00:37:35.042Z,3.37
2022-10-11T00:40:01.891Z,3.10
2022-10-11T00:42:28.376Z,3.30
2022-10-11T00:45:26.590Z,3.27
2022-10-11T00:48:17.866Z,3.27
2022-10-11T00:50:44.410Z,3.40
2022-10-11T00:53:11.456Z,3.50
2022-10-11T00:55:42.068Z,3.10
2022-10-11T00:58:09.010Z,3.30
2022-10-11T01:00:35.509Z,2.90
2022-10-11T01:03:02.712Z,2.50
2022-10-11T01:05:30.659Z,3.17
2022-10-11T01:07:59.202Z,3.53
2022-10-11T01:10:26.376Z,2.83
2022-10-11T01:13:12.466Z,3.37
2022-10-11T01:15:50.926Z,3.00
2022-10-11T01:18:26.880Z,2.90
2022-10-11T01:21:17.893Z,2.87
2022-10-11T01:23:50.486Z,2.67
2022-10-11T01:26:45.114Z,3.33
2022-10-11T01:29:20.338Z,2.90
2022-10-11T01:32:00.857Z,2.77
2022-10-11T01:34:33.185Z,2.83
2022-10-11T01:37:10.390Z,2.60
2022-10-11T01:39:48.773Z,2.77
2022-10-11T01:42:17.680Z,2.57
2022-10-11T01:44:46.938Z,2.73
2022-10-11T01:47:14.148Z,2.77
2022-10-11T01:49:41.943Z,2.63
2022-10-11T01:52:08.452Z,2.60
2022-10-11T01:55:10.646Z,2.40
2022-10-11T01:57:43.251Z,3.37
2022-10-11T02:00:18.928Z,2.60
2022-10-11T02:03:06.679Z,2.40
2022-10-11T02:05:46.283Z,2.57
2022-10-11T02:08:12.714Z,1.90
2022-10-11T02:11:05.470Z,2.90
2022-10-11T02:13:36.408Z,2.50
2022-10-11T02:16:07.203Z,2.50
2022-10-11T02:18:36.853Z,2.67
2022-10-11T02:21:05.583Z,2.57
2022-10-11T02:23:38.093Z,2.13
2022-10-11T02:26:06.777Z,2.43
2022-10-11T02:28:36.626Z,2.87
2022-10-11T02:31:06.009Z,2.80
2022-10-11T02:34:02.906Z,2.60
2022-10-11T02:36:48.049Z,2.23
2022-10-11T02:39:19.432Z,2.10
2022-10-11T02:41:46.739Z,2.10
2022-10-11T02:44:17.546Z,2.60
2022-10-11T02:46:45.607Z,2.43
2022-10-11T02:49:13.199Z,2.03
2022-10-11T02:51:39.768Z,2.40
2022-10-11T02:54:06.252Z,2.53
2022-10-11T02:56:32.747Z,2.40
2022-10-11T02:58:59.240Z,2.47
2022-10-11T03:01:25.880Z,2.03
2022-10-11T03:03:52.592Z,2.67
2022-10-11T03:06:19.076Z,2.50
2022-10-11T03:08:45.506Z,2.30
2022-10-11T03:11:11.973Z,2.37
2022-10-11T03:13:38.409Z,2.53
2022-10-11T03:16:05.010Z,2.33
2022-10-11T03:18:31.663Z,2.53
2022-10-11T03:20:58.146Z,2.57
2022-10-11T03:23:24.587Z,2.37
2022-10-11T03:25:52.176Z,2.90
2022-10-11T03:28:19.250Z,2.70
2022-10-11T03:30:50.176Z,2.83
2022-10-11T03:33:17.222Z,2.87
2022-10-11T03:35:45.370Z,2.50
2022-10-11T03:38:13.264Z,2.67
2022-10-11T03:40:41.181Z,3.43
2022-10-11T03:43:07.688Z,3.03
2022-10-11T03:45:34.628Z,3.47
2022-10-11T03:48:01.110Z,3.23
2022-10-11T03:50:27.617Z,3.43
2022-10-11T03:52:54.159Z,3.63
2022-10-11T03:55:20.598Z,3.80
2022-10-11T03:57:47.123Z,3.70
2022-10-11T04:00:13.744Z,4.03
2022-10-11T04:02:40.203Z,3.97
2022-10-11T04:05:07.264Z,4.43
2022-10-11T04:07:33.782Z,4.03
2022-10-11T04:10:00.271Z,4.60
2022-10-11T04:12:26.874Z,4.27
2022-10-11T04:14:53.323Z,4.10
2022-10-11T04:17:19.786Z,4.47
2022-10-11T04:19:46.360Z,4.30
2022-10-11T04:22:12.934Z,5.43
2022-10-11T04:24:39.388Z,4.53
2022-10-11T04:27:06.264Z,4.80
2022-10-11T04:29:33.055Z,4.57
2022-10-11T04:31:59.757Z,5.33
2022-10-11T04:34:26.281Z,5.90
2022-10-11T04:36:52.784Z,5.00
2022-10-11T04:39:19.234Z,5.20
2022-10-11T04:41:45.703Z,5.00
2022-10-11T04:44:12.203Z,5.83
2022-10-11T04:46:38.686Z,7.57
2022-10-11T04:49:05.522Z,8.37
2022-10-11T04:51:33.820Z,8.23
2022-10-11T04:54:00.394Z,9.53
2022-10-11T04:56:26.855Z,8.57
2022-10-11T04:58:54.617Z,7.30
2022-10-11T05:01:21.437Z,5.70
2022-10-11T05:03:48.466Z,6.03
2022-10-11T05:06:15.095Z,5.53
2022-10-11T05:08:41.621Z,8.13
2022-10-11T05:11:11.359Z,8.47
2022-10-11T05:13:38.481Z,7.80
2022-10-11T05:16:09.789Z,7.27
2022-10-11T05:18:37.746Z,7.30
2022-10-11T05:21:07.566Z,7.80
2022-10-11T05:23:34.996Z,7.33
2022-10-11T05:26:02.640Z,8.40
2022-10-11T05:28:29.930Z,7.77
2022-10-11T05:30:56.457Z,7.60
2022-10-11T05:33:23.223Z,5.70
2022-10-11T05:35:49.821Z,5.20
2022-10-11T05:38:16.601Z,5.07
2022-10-11T05:40:43.386Z,5.17
2022-10-11T05:43:09.898Z,4.60
2022-10-11T05:45:38.442Z,5.40
2022-10-11T05:48:05.310Z,4.77
2022-10-11T05:50:32.503Z,5.60
2022-10-11T05:52:59.025Z,5.73
2022-10-11T05:55:25.723Z,5.50
2022-10-11T05:57:56.396Z,6.13
2022-10-11T06:00:24.439Z,5.33
2022-10-11T06:02:50.886Z,6.27
2022-10-11T06:05:17.390Z,5.20
2022-10-11T06:07:44.066Z,5.43
2022-10-11T06:10:10.885Z,5.17
2022-10-11T06:12:37.535Z,5.80
2022-10-11T06:15:04.568Z,5.93
2022-10-11T06:17:31.016Z,6.20
2022-10-11T06:19:57.503Z,5.53
2022-10-11T06:22:23.990Z,5.77
2022-10-11T06:24:50.748Z,5.40
2022-10-11T06:27:17.237Z,6.10
2022-10-11T06:29:43.673Z,5.10
2022-10-11T06:32:10.198Z,5.67
2022-10-11T06:34:36.705Z,5.10
2022-10-11T06:37:03.189Z,5.90
2022-10-11T06:39:29.781Z,5.77
2022-10-11T06:41:56.242Z,5.90
2022-10-11T06:44:22.689Z,5.83
2022-10-11T06:46:49.132Z,5.70
2022-10-11T06:49:19.330Z,5.83
2022-10-11T06:51:48.755Z,6.23
2022-10-11T06:54:15.603Z,5.10
2022-10-11T06:56:42.109Z,5.67
2022-10-11T06:59:09.053Z,5.57
2022-10-11T07:01:35.665Z,5.00
2022-10-11T07:04:03.066Z,4.97
2022-10-11T07:06:30.931Z,5.13
2022-10-11T07:08:59.790Z,5.10
2022-10-11T07:11:27.822Z,5.20
2022-10-11T07:13:56.348Z,4.90
2022-10-11T07:16:23.189Z,5.03
2022-10-11T07:18:59.645Z,4.60
2022-10-11T07:21:27.583Z,4.90
2022-10-11T07:23:54.032Z,5.50
2022-10-11T07:26:20.635Z,4.50
2022-10-11T07:28:47.398Z,5.40
2022-10-11T07:31:20.102Z,5.50
2022-10-11T07:33:46.690Z,4.70
2022-10-11T07:36:13.621Z,4.47
2022-10-11T07:38:41.330Z,4.70
2022-10-11T07:41:08.901Z,4.77
2022-10-11T07:43:36.217Z,4.77
2022-10-11T07:46:04.885Z,4.90
2022-10-11T07:48:33.669Z,4.67
2022-10-11T07:51:18.372Z,4.93
2022-10-11T07:54:04.667Z,4.13
2022-10-11T07:56:33.458Z,4.40
2022-10-11T07:59:03.505Z,4.60
2022-10-11T08:01:30.695Z,4.00
2022-10-11T08:03:57.535Z,4.73
2022-10-11T08:06:30.221Z,4.27
2022-10-11T08:08:57.662Z,4.17
2022-10-11T08:11:27.491Z,4.80
2022-10-11T08:13:54.061Z,4.23
2022-10-11T08:16:20.860Z,4.40
2022-10-11T08:18:47.729Z,4.00
2022-10-11T08:21:16.322Z,3.87
2022-10-11T08:23:42.923Z,4.60
2022-10-11T08:26:10.026Z,4.03
2022-10-11T08:28:37.043Z,3.93
2022-10-11T08:31:04.220Z,3.50
2022-10-11T08:33:31.231Z,4.67
2022-10-11T08:35:58.461Z,4.00
2022-10-11T08:38:25.077Z,3.53
2022-10-11T08:40:57.003Z,3.77
2022-10-11T08:43:33.274Z,3.70
2022-10-11T08:46:01.620Z,3.83
2022-10-11T08:48:45.173Z,4.07
2022-10-11T08:51:40.733Z,3.57
2022-10-11T08:54:27.436Z,3.40
2022-10-11T08:56:53.934Z,4.17
2022-10-11T08:59:40.160Z,4.17
2022-10-11T09:03:06.978Z,3.40
2022-10-11T09:05:46.241Z,3.53
2022-10-11T09:08:22.266Z,3.63
2022-10-11T09:10:57.013Z,3.17
2022-10-11T09:13:44.678Z,3.30
2022-10-11T09:16:23.912Z,3.10
2022-10-11T09:18:56.314Z,3.77
2022-10-11T09:21:26.160Z,5.13
2022-10-11T09:24:06.274Z,3.90
2022-10-11T09:26:50.984Z,4.40
2022-10-11T09:29:45.002Z,5.93
2022-10-11T09:32:17.228Z,3.73
2022-10-11T09:34:43.841Z,3.73
2022-10-11T09:37:21.593Z,2.90
2022-10-11T09:39:55.494Z,3.37
2022-10-11T09:42:22.059Z,6.30
2022-10-11T09:44:50.816Z,4.70
2022-10-11T09:47:27.689Z,3.27
2022-10-11T09:50:06.634Z,3.40
2022-10-11T09:52:33.594Z,3.50
2022-10-11T09:55:01.978Z,4.30
2022-10-11T09:57:30.735Z,3.60
2022-10-11T09:59:59.226Z,4.17
2022-10-11T10:02:26.273Z,3.33
2022-10-11T10:05:10.449Z,3.13
2022-10-11T10:07:41.136Z,3.07
2022-10-11T10:10:43.074Z,3.03
2022-10-11T10:13:24.873Z,3.47
2022-10-11T10:15:56.453Z,3.50
2022-10-11T10:18:34.652Z,4.07
2022-10-11T10:21:02.089Z,4.20
2022-10-11T10:23:33.331Z,3.93
2022-10-11T10:26:19.015Z,3.93
2022-10-11T10:28:59.050Z,3.17
2022-10-11T10:31:49.477Z,3.17
2022-10-11T10:34:26.245Z,3.03
2022-10-11T10:37:00.511Z,2.87
2022-10-11T10:39:42.846Z,2.93
2022-10-11T10:42:17.784Z,2.63
2022-10-11T10:44:45.850Z,3.07
2022-10-11T10:47:37.152Z,2.80
2022-10-11T10:50:08.242Z,2.93
2022-10-11T10:52:46.752Z,3.50
2022-10-11T10:55:31.767Z,2.60
2022-10-11T10:58:11.367Z,3.60
2022-10-11T11:01:02.914Z,3.67
2022-10-11T11:03:40.358Z,3.30
2022-10-11T11:06:09.124Z,3.10
2022-10-11T11:08:50.217Z,2.87
2022-10-11T11:11:55.531Z,3.10
2022-10-11T11:14:39.289Z,3.03
2022-10-11T11:17:36.956Z,3.63
2022-10-11T11:20:21.177Z,3.60
2022-10-11T11:22:56.201Z,3.53
2022-10-11T11:25:40.313Z,2.60
2022-10-11T11:28:54.190Z,2.83
2022-10-11T11:31:29.672Z,2.73
2022-10-11T11:34:08.203Z,3.10
2022-10-11T11:36:34.598Z,3.10
2022-10-11T11:39:06.203Z,3.07
2022-10-11T11:41:44.358Z,3.20
2022-10-11T11:44:27.138Z,2.80
2022-10-11T11:47:02.731Z,2.70
2022-10-11T11:49:36.888Z,2.07
2022-10-11T11:52:05.993Z,2.70
2022-10-11T11:54:42.588Z,2.67
2022-10-11T11:57:28.440Z,2.40
2022-10-11T12:00:09.015Z,2.73
2022-10-11T12:02:44.656Z,3.00
2022-10-11T12:05:13.833Z,2.87
2022-10-11T12:07:50.853Z,2.97
2022-10-11T12:10:25.800Z,2.20
2022-10-11T12:13:03.621Z,2.40
2022-10-11T12:15:30.161Z,3.23
2022-10-11T12:17:56.540Z,2.67
2022-10-11T12:20:32.603Z,3.70
2022-10-11T12:23:01.196Z,3.90
2022-10-11T12:25:28.613Z,3.90
2022-10-11T12:27:57.162Z,3.30
2022-10-11T12:30:48.638Z,3.30
2022-10-11T12:33:33.527Z,3.47
2022-10-11T12:36:05.890Z,3.10
2022-10-11T12:38:40.218Z,3.57
2022-10-11T12:41:09.766Z,3.20
2022-10-11T12:43:48.511Z,3.40
2022-10-11T12:46:31.219Z,3.00
2022-10-11T12:49:33.656Z,2.80
2022-10-11T12:52:22.187Z,3.50
2022-10-11T12:55:13.755Z,2.73
2022-10-11T12:58:17.729Z,2.60
2022-10-11T13:01:04.187Z,2.93
2022-10-11T13:03:34.494Z,2.77
2022-10-11T13:06:29.974Z,2.60
2022-10-11T13:09:04.480Z,2.77
2022-10-11T13:11:34.628Z,3.00
2022-10-11T13:14:09.001Z,2.77
2022-10-11T13:16:50.591Z,3.10
2022-10-11T13:19:17.740Z,3.10
2022-10-11T13:21:51.442Z,2.80
2022-10-11T13:24:19.319Z,2.93
2022-10-11T13:26:48.313Z,2.93
2022-10-11T13:29:37.901Z,2.87
2022-10-11T13:32:11.666Z,3.30
2022-10-11T13:34:40.018Z,3.13
2022-10-11T13:37:07.857Z,2.87
2022-10-11T13:39:37.387Z,3.40
2022-10-11T13:42:07.345Z,4.83
2022-10-11T13:44:34.305Z,4.73
2022-10-11T13:47:00.796Z,3.10
2022-10-11T13:49:37.628Z,3.00
2022-10-11T13:52:26.366Z,3.40
2022-10-11T13:55:05.107Z,3.40
2022-10-11T13:57:38.561Z,2.83
2022-10-11T14:00:29.873Z,3.10
2022-10-11T14:03:04.571Z,3.60
2022-10-11T14:05:32.966Z,2.97
2022-10-11T14:08:26.779Z,3.40
2022-10-11T14:10:57.260Z,3.43
2022-10-11T14:13:29.392Z,3.17
2022-10-11T14:16:07.240Z,2.93
2022-10-11T14:18:36.936Z,2.87
2022-10-11T14:21:27.416Z,3.03
2022-10-11T14:24:05.444Z,2.77
2022-10-11T14:26:38.197Z,2.57
2022-10-11T14:29:28.695Z,2.90
2022-10-11T14:32:01.118Z,2.37
2022-10-11T14:34:27.796Z,2.67
2022-10-11T14:36:54.385Z,2.93
2022-10-11T14:39:23.541Z,3.07
2022-10-11T14:41:50.754Z,3.13
2022-10-11T14:44:17.844Z,3.27
2022-10-11T14:46:45.395Z,3.70
2022-10-11T14:49:20.510Z,3.10
2022-10-11T14:51:48.841Z,2.90
2022-10-11T14:54:18.861Z,3.80
2022-10-11T14:56:46.435Z,3.10
2022-10-11T14:59:15.370Z,3.67
2022-10-11T15:01:42.273Z,3.00
2022-10-11T15:04:09.104Z,3.37
2022-10-11T15:06:38.357Z,3.57
2022-10-11T15:09:05.934Z,3.43
2022-10-11T15:11:32.891Z,3.70
2022-10-11T15:13:59.489Z,3.43
2022-10-11T15:16:26.962Z,3.40
2022-10-11T15:18:53.494Z,3.70
2022-10-11T15:21:22.831Z,3.73
2022-10-11T15:23:50.914Z,4.30
2022-10-11T15:26:21.938Z,3.37
2022-10-11T15:28:49.638Z,4.07
2022-10-11T15:31:16.234Z,3.37
2022-10-11T15:33:42.747Z,3.23
2022-10-11T15:36:13.986Z,3.20
2022-10-11T15:38:41.203Z,3.20
2022-10-11T15:41:08.528Z,3.30
2022-10-11T15:43:35.003Z,3.73
2022-10-11T15:46:01.829Z,3.77
2022-10-11T15:48:29.029Z,3.77
2022-10-11T15:50:55.644Z,3.40
2022-10-11T15:53:25.769Z,3.57
2022-10-11T15:55:54.024Z,3.27
2022-10-11T15:58:26.351Z,3.83
2022-10-11T16:00:54.958Z,3.53
2022-10-11T16:03:23.694Z,3.10
2022-10-11T16:05:50.405Z,3.13
2022-10-11T16:08:16.929Z,3.47
2022-10-11T16:10:43.434Z,3.70
2022-10-11T16:13:10.436Z,3.00
2022-10-11T16:15:41.369Z,3.37
2022-10-11T16:18:09.732Z,4.07
2022-10-11T16:20:41.986Z,3.63
2022-10-11T16:23:09.007Z,4.10
2022-10-11T16:25:35.648Z,4.13
2022-10-11T16:28:03.038Z,4.90
2022-10-11T16:30:30.114Z,5.03
2022-10-11T16:32:56.732Z,4.53
2022-10-11T16:35:23.321Z,3.60
2022-10-11T16:37:49.956Z,4.13
2022-10-11T16:40:17.634Z,5.73
2022-10-11T16:42:44.986Z,5.10
2022-10-11T16:45:12.998Z,5.23
2022-10-11T16:47:39.707Z,4.97
2022-10-11T16:50:06.856Z,5.37
2022-10-11T16:52:33.340Z,4.73
2022-10-11T16:54:59.945Z,5.37
2022-10-11T16:57:26.407Z,5.57
2022-10-11T16:59:52.885Z,4.83
2022-10-11T17:02:22.153Z,5.40
2022-10-11T17:04:50.679Z,4.50
2022-10-11T17:07:18.582Z,4.80
2022-10-11T17:09:45.884Z,7.10
2022-10-11T17:12:14.000Z,6.17
2022-10-11T17:14:41.392Z,10.30
2022-10-11T17:17:09.404Z,11.03
2022-10-11T17:19:41.356Z,14.27
2022-10-11T17:22:12.032Z,14.40
2022-10-11T17:24:39.044Z,11.50
2022-10-11T17:27:06.562Z,10.97
2022-10-11T17:29:33.665Z,12.50
2022-10-11T17:32:00.231Z,9.07
2022-10-11T17:34:26.865Z,4.60
2022-10-11T17:36:53.368Z,4.53
2022-10-11T17:39:22.867Z,5.70
2022-10-11T17:41:50.372Z,5.53
2022-10-11T17:44:19.789Z,5.23
2022-10-11T17:46:46.932Z,6.03
2022-10-11T17:49:14.148Z,6.73
2022-10-11T17:51:45.002Z,6.53
2022-10-11T17:54:13.378Z,6.17
2022-10-11T17:56:41.854Z,4.33
2022-10-11T17:59:11.246Z,4.67
2022-10-11T18:01:38.958Z,3.90
2022-10-11T18:04:06.330Z,4.20
2022-10-11T18:06:37.709Z,3.90
2022-10-11T18:09:04.593Z,3.87
2022-10-11T18:11:31.300Z,3.83
2022-10-11T18:13:57.849Z,4.90
2022-10-11T18:16:29.236Z,5.10
2022-10-11T18:18:57.348Z,4.67
2022-10-11T18:21:33.723Z,6.40
2022-10-11T18:24:03.297Z,6.70
2022-10-11T18:26:30.992Z,5.70
2022-10-11T18:28:58.514Z,4.80
2022-10-11T18:31:27.233Z,5.27
2022-10-11T18:33:54.509Z,5.20
2022-10-11T18:36:23.776Z,5.63
2022-10-11T18:38:53.612Z,6.43
2022-10-11T18:41:22.062Z,6.63
2022-10-11T18:43:53.677Z,6.50
2022-10-11T18:46:21.169Z,6.67
2022-10-11T18:48:50.173Z,6.57
2022-10-11T18:51:29.009Z,7.33
2022-10-11T18:53:55.983Z,9.00
2022-10-11T18:56:24.745Z,7.30
2022-10-11T18:58:52.727Z,7.37
2022-10-11T19:01:27.764Z,6.83
2022-10-11T19:03:56.914Z,6.23
2022-10-11T19:06:26.050Z,6.43
2022-10-11T19:09:09.410Z,6.00
2022-10-11T19:11:36.313Z,6.47
2022-10-11T19:14:25.581Z,6.27
2022-10-11T19:16:53.123Z,6.03
2022-10-11T19:19:21.895Z,5.73
2022-10-11T19:21:48.870Z,5.13
2022-10-11T19:24:16.685Z,5.50
2022-10-11T19:26:43.460Z,4.17
2022-10-11T19:29:19.108Z,3.70
2022-10-11T19:31:51.102Z,3.37
2022-10-11T19:34:18.132Z,3.30
2022-10-11T19:36:45.137Z,3.03
2022-10-11T19:39:15.655Z,3.20
2022-10-11T19:41:42.821Z,3.03
2022-10-11T19:44:10.009Z,2.90
2022-10-11T19:46:53.169Z,4.00
2022-10-11T19:49:22.763Z,3.73
2022-10-11T19:51:49.873Z,2.93
2022-10-11T19:54:16.913Z,3.63
2022-10-11T19:56:44.535Z,3.07
2022-10-11T19:59:11.841Z,2.80
2022-10-11T20:01:38.824Z,3.27
2022-10-11T20:04:08.308Z,3.03
2022-10-11T20:06:38.485Z,2.60
2022-10-11T20:09:29.189Z,2.73
2022-10-11T20:11:56.629Z,2.93
2022-10-11T20:14:23.270Z,2.87
2022-10-11T20:16:50.588Z,2.83
2022-10-11T20:19:17.438Z,3.03
2022-10-11T20:21:45.399Z,2.93
2022-10-11T20:24:12.247Z,2.00
2022-10-11T20:26:39.704Z,2.40
2022-10-11T20:29:06.626Z,2.60
2022-10-11T20:31:34.786Z,2.10
2022-10-11T20:34:04.228Z,2.50
2022-10-11T20:36:31.986Z,2.40
2022-10-11T20:39:00.201Z,2.20
2022-10-11T20:41:31.911Z,2.30
2022-10-11T20:43:59.762Z,2.13
2022-10-11T20:46:28.376Z,2.47
2022-10-11T20:49:01.299Z,2.03
2022-10-11T20:51:29.442Z,2.30
2022-10-11T20:53:56.517Z,2.20
2022-10-11T20:56:23.340Z,3.30
2022-10-11T20:58:54.124Z,4.80
2022-10-11T21:01:23.200Z,3.10
2022-10-11T21:03:50.391Z,2.60
2022-10-11T21:06:16.947Z,2.70
2022-10-11T21:08:43.461Z,2.90
2022-10-11T21:11:10.429Z,2.80
2022-10-11T21:13:37.462Z,2.63
2022-10-11T21:16:14.796Z,2.67
2022-10-11T21:18:41.646Z,2.10
2022-10-11T21:21:13.442Z,2.37
2022-10-11T21:23:40.593Z,2.33
2022-10-11T21:26:09.545Z,2.53
2022-10-11T21:28:36.342Z,2.60
2022-10-11T21:31:08.186Z,2.30
2022-10-11T21:33:35.479Z,2.47
2022-10-11T21:36:06.386Z,2.60
2022-10-11T21:38:33.565Z,2.33
2022-10-11T21:41:07.170Z,2.40
2022-10-11T21:43:35.710Z,2.67
2022-10-11T21:46:15.326Z,2.33
2022-10-11T21:48:41.856Z,2.67
2022-10-11T21:53:45.358Z,2.63
2022-10-11T21:56:11.828Z,2.43
2022-10-11T21:58:38.323Z,2.87
2022-10-11T22:01:05.125Z,3.00
2022-10-11T22:03:31.689Z,2.80
2022-10-11T22:06:01.723Z,3.17
2022-10-11T22:08:28.202Z,2.53
2022-10-11T22:10:56.708Z,3.13
2022-10-11T22:13:24.551Z,3.10
2022-10-11T22:15:51.370Z,3.13
2022-10-11T22:18:17.918Z,3.10
2022-10-11T22:20:44.616Z,2.47
2022-10-11T22:23:11.660Z,3.07
2022-10-11T22:25:39.100Z,2.70
2022-10-11T22:28:06.002Z,2.67
2022-10-11T22:30:32.660Z,2.53
2022-10-11T22:32:59.109Z,3.13
2022-10-11T22:35:25.670Z,2.90
2022-10-11T22:37:52.292Z,2.87
2022-10-11T22:40:19.550Z,3.00
2022-10-11T22:42:46.409Z,2.57
2022-10-11T22:45:12.888Z,2.70
2022-10-11T22:47:39.429Z,2.83
2022-10-11T22:50:06.119Z,2.63
2022-10-11T22:52:32.612Z,2.90
2022-10-11T22:54:59.073Z,3.10
2022-10-11T22:57:25.582Z,3.70
2022-10-11T22:59:52.039Z,2.70
2022-10-11T23:02:18.473Z,2.43
2022-10-11T23:04:44.942Z,2.80
2022-10-11T23:07:11.380Z,3.03
2022-10-11T23:09:37.848Z,3.20
2022-10-11T23:12:04.593Z,3.00
2022-10-11T23:14:31.075Z,3.00
2022-10-11T23:16:57.516Z,3.10
2022-10-11T23:19:24.013Z,3.53
2022-10-11T23:21:50.464Z,3.37
2022-10-11T23:24:16.975Z,3.10
2022-10-11T23:26:44.223Z,3.27
2022-10-11T23:29:10.781Z,3.30
2022-10-11T23:31:37.248Z,3.13
2022-10-11T23:34:03.714Z,3.17
2022-10-11T23:36:30.182Z,3.00
2022-10-11T23:38:58.197Z,3.03
2022-10-11T23:41:27.031Z,3.60
2022-10-11T23:43:53.942Z,3.43
2022-10-11T23:46:20.504Z,3.40
2022-10-11T23:48:46.974Z,3.23
2022-10-11T23:51:13.837Z,3.00
2022-10-11T23:53:40.305Z,4.20
2022-10-11T23:56:07.412Z,3.40
2022-10-11T23:58:33.950Z,3.53
